createdAt,value
2023-01-20T06:02:05.169Z,0.66
2023-01-20T06:04:36.357Z,0.65
2023-01-20T06:07:03.372Z,0.63
2023-01-20T06:09:33.602Z,0.61
2023-01-20T06:12:01.455Z,0.60
2023-01-20T06:14:28.985Z,0.62
2023-01-20T06:16:56.080Z,0.59
2023-01-20T06:19:23.841Z,0.57
2023-01-20T06:21:51.419Z,0.55
2023-01-20T06:24:21.566Z,0.59
2023-01-20T06:26:51.050Z,0.55
2023-01-20T06:29:24.061Z,0.60
2023-01-20T06:31:50.883Z,0.62
2023-01-20T06:37:07.256Z,0.57
2023-01-20T06:39:40.966Z,0.53
2023-01-20T06:42:31.992Z,0.44
2023-01-20T06:44:59.894Z,0.44
2023-01-20T06:47:32.787Z,0.49
2023-01-20T06:50:00.196Z,0.56
2023-01-20T06:52:30.359Z,0.57
2023-01-20T06:55:00.689Z,0.65
2023-01-20T06:57:30.053Z,0.65
2023-01-20T06:59:57.583Z,0.65
2023-01-20T07:02:24.679Z,0.64
2023-01-20T07:05:00.370Z,0.67
2023-01-20T07:07:39.949Z,0.70
2023-01-20T07:10:32.156Z,0.75
2023-01-20T07:13:01.579Z,0.72
2023-01-20T07:15:28.351Z,0.72
2023-01-20T07:17:55.195Z,0.69
2023-01-20T07:20:23.073Z,0.69
2023-01-20T07:22:50.515Z,0.65
2023-01-20T07:25:18.029Z,0.64
2023-01-20T07:27:46.696Z,0.67
2023-01-20T07:30:16.931Z,0.69
2023-01-20T07:32:43.481Z,0.67
2023-01-20T07:35:10.993Z,0.68
2023-01-20T07:37:37.626Z,0.75
2023-01-20T07:40:05.248Z,0.71
2023-01-20T07:42:31.821Z,0.71
2023-01-20T07:44:59.012Z,0.74
2023-01-20T07:47:25.562Z,0.70
2023-01-20T07:49:52.770Z,0.74
2023-01-20T07:52:19.342Z,0.69
2023-01-20T07:54:46.509Z,0.69
2023-01-20T07:57:13.039Z,0.71
2023-01-20T07:59:40.255Z,0.74
2023-01-20T08:02:09.355Z,0.76
2023-01-20T08:04:36.599Z,0.75
2023-01-20T08:07:03.704Z,0.75
2023-01-20T08:09:30.911Z,0.71
2023-01-20T08:11:57.609Z,0.74
2023-01-20T08:14:24.900Z,0.77
2023-01-20T08:16:51.472Z,0.81
2023-01-20T08:19:18.757Z,0.83
2023-01-20T08:21:45.354Z,0.87
2023-01-20T08:24:12.535Z,0.87
2023-01-20T08:26:39.109Z,0.88
2023-01-20T08:29:09.177Z,0.93
2023-01-20T08:31:36.499Z,0.94
2023-01-20T08:34:04.293Z,0.87
2023-01-20T08:36:34.409Z,0.78
2023-01-20T08:39:05.034Z,0.80
2023-01-20T08:41:35.088Z,0.83
2023-01-20T08:44:02.714Z,0.80
2023-01-20T08:46:30.333Z,0.84
2023-01-20T08:48:57.517Z,0.83
2023-01-20T08:51:27.820Z,0.88
2023-01-20T08:53:54.433Z,0.85
2023-01-20T08:56:21.918Z,0.90
2023-01-20T08:58:48.990Z,0.93
2023-01-20T09:01:22.215Z,0.95
2023-01-20T09:04:04.382Z,0.99
2023-01-20T09:06:48.884Z,0.94
2023-01-20T09:09:17.544Z,0.98
2023-01-20T09:11:51.056Z,0.98
2023-01-20T09:14:23.423Z,1.03
2023-01-20T09:16:50.633Z,1.06
2023-01-20T09:19:18.028Z,1.13
2023-01-20T09:21:44.651Z,1.16
2023-01-20T09:24:11.710Z,1.14
2023-01-20T09:26:41.866Z,1.15
2023-01-20T09:29:13.257Z,1.12
2023-01-20T09:31:46.011Z,1.17
2023-01-20T09:34:21.636Z,1.11
2023-01-20T09:37:19.349Z,1.16
2023-01-20T09:40:05.694Z,1.23
2023-01-20T09:43:17.308Z,1.26
2023-01-20T09:45:59.255Z,1.27
2023-01-20T09:49:01.361Z,1.27
2023-01-20T09:52:29.772Z,1.26
2023-01-20T09:55:10.578Z,1.22
2023-01-20T09:57:43.154Z,1.25
2023-01-20T10:00:22.030Z,1.26
2023-01-20T10:02:54.961Z,1.29
2023-01-20T10:05:30.737Z,1.28
2023-01-20T10:08:04.515Z,1.27
2023-01-20T10:10:52.547Z,1.20
2023-01-20T10:13:31.441Z,1.18
2023-01-20T10:16:03.825Z,1.23
2023-01-20T10:18:42.276Z,1.28
2023-01-20T10:21:16.521Z,1.39
2023-01-20T10:24:11.585Z,1.44
2023-01-20T10:26:54.318Z,1.42
2023-01-20T10:29:34.863Z,1.43
2023-01-20T10:32:09.689Z,1.47
2023-01-20T10:34:49.604Z,1.40
2023-01-20T10:37:16.845Z,1.47
2023-01-20T10:40:09.649Z,1.47
2023-01-20T10:42:36.235Z,1.44
2023-01-20T10:45:03.877Z,1.47
2023-01-20T10:47:43.999Z,1.49
2023-01-20T10:50:11.399Z,1.65
2023-01-20T10:52:56.815Z,1.71
2023-01-20T10:55:35.421Z,1.77
2023-01-20T10:58:14.887Z,1.70
2023-01-20T11:00:42.920Z,1.73
2023-01-20T11:03:15.831Z,1.76
2023-01-20T11:05:43.433Z,1.78
2023-01-20T11:08:35.281Z,1.89
2023-01-20T11:11:12.755Z,1.85
2023-01-20T11:13:39.495Z,1.84
2023-01-20T11:16:25.680Z,1.87
2023-01-20T11:19:00.080Z,1.96
2023-01-20T11:21:31.215Z,1.92
2023-01-20T11:23:59.483Z,1.89
2023-01-20T11:26:35.792Z,1.92
2023-01-20T11:29:11.340Z,1.96
2023-01-20T11:32:02.863Z,1.98
2023-01-20T11:34:32.569Z,1.94
2023-01-20T11:37:05.513Z,1.94
2023-01-20T11:39:42.332Z,2.00
2023-01-20T11:42:16.267Z,2.04
2023-01-20T11:44:46.583Z,1.98
2023-01-20T11:47:27.520Z,1.93
2023-01-20T11:50:22.934Z,1.89
2023-01-20T11:52:50.237Z,1.87
2023-01-20T11:55:27.253Z,1.84
2023-01-20T11:57:58.791Z,1.80
2023-01-20T12:00:32.463Z,1.74
2023-01-20T12:03:11.664Z,1.82
2023-01-20T12:05:44.926Z,1.83
2023-01-20T12:08:18.501Z,1.81
2023-01-20T12:10:46.491Z,1.84
2023-01-20T12:13:23.374Z,1.88
2023-01-20T12:15:56.137Z,1.92
2023-01-20T12:18:37.784Z,1.82
2023-01-20T12:21:20.639Z,1.89
2023-01-20T12:24:30.135Z,1.92
2023-01-20T12:27:02.706Z,1.94
2023-01-20T12:29:44.673Z,1.98
2023-01-20T12:32:11.861Z,1.93
2023-01-20T12:34:38.724Z,1.83
2023-01-20T12:37:08.655Z,1.75
2023-01-20T12:39:57.551Z,1.81
2023-01-20T12:42:39.361Z,1.79
2023-01-20T12:45:21.192Z,1.84
2023-01-20T12:48:10.356Z,1.84
2023-01-20T12:50:57.845Z,1.88
2023-01-20T12:53:46.221Z,1.89
2023-01-20T12:56:19.433Z,1.90
2023-01-20T12:59:24.650Z,1.91
2023-01-20T13:02:26.506Z,1.88
2023-01-20T13:04:53.023Z,1.86
2023-01-20T13:07:35.370Z,1.73
2023-01-20T13:10:07.913Z,1.69
2023-01-20T13:12:51.150Z,1.67
2023-01-20T13:15:28.938Z,1.61
2023-01-20T13:18:17.656Z,1.58
2023-01-20T13:20:45.982Z,1.63
2023-01-20T13:23:22.679Z,1.67
2023-01-20T13:25:51.545Z,1.63
2023-01-20T13:28:25.134Z,1.63
2023-01-20T13:30:54.680Z,1.64
2023-01-20T13:33:40.158Z,1.64
2023-01-20T13:36:21.412Z,1.68
2023-01-20T13:38:51.228Z,1.69
2023-01-20T13:41:48.724Z,1.69
2023-01-20T13:44:36.071Z,1.71
2023-01-20T13:47:04.296Z,1.80
2023-01-20T13:49:54.927Z,1.80
2023-01-20T13:52:52.964Z,1.81
2023-01-20T13:55:41.092Z,1.81
2023-01-20T13:58:26.572Z,1.83
2023-01-20T14:00:58.003Z,1.86
2023-01-20T14:03:33.779Z,1.86
2023-01-20T14:06:14.037Z,1.85
2023-01-20T14:08:50.014Z,1.85
2023-01-20T14:11:25.790Z,1.85
2023-01-20T14:13:58.543Z,1.84
2023-01-20T14:16:34.527Z,1.85
2023-01-20T14:19:15.639Z,1.84
2023-01-20T14:21:42.919Z,1.86
2023-01-20T14:24:29.601Z,1.85
2023-01-20T14:27:31.843Z,1.87
2023-01-20T14:30:25.360Z,1.88
2023-01-20T14:32:53.570Z,1.90
2023-01-20T14:35:33.129Z,1.88
2023-01-20T14:38:01.115Z,1.85
2023-01-20T14:40:33.593Z,1.86
2023-01-20T14:43:22.059Z,1.87
2023-01-20T14:45:53.660Z,1.89
2023-01-20T14:48:33.753Z,1.85
2023-01-20T14:51:03.999Z,1.84
2023-01-20T14:53:30.888Z,1.86
2023-01-20T14:56:05.005Z,1.82
2023-01-20T14:58:32.270Z,1.81
2023-01-20T15:01:02.779Z,1.75
2023-01-20T15:03:31.109Z,1.74
2023-01-20T15:06:05.102Z,1.79
2023-01-20T15:08:35.044Z,1.79
2023-01-20T15:11:16.980Z,1.79
2023-01-20T15:14:10.392Z,1.80
2023-01-20T15:16:37.004Z,1.80
2023-01-20T15:19:20.454Z,1.79
2023-01-20T15:21:56.302Z,1.75
2023-01-20T15:24:30.508Z,1.74
2023-01-20T15:26:59.183Z,1.70
2023-01-20T15:29:28.303Z,1.67
2023-01-20T15:31:57.313Z,1.64
2023-01-20T15:34:25.972Z,1.63
2023-01-20T15:36:54.379Z,1.60
2023-01-20T15:39:29.649Z,1.57
2023-01-20T15:41:57.233Z,1.56
2023-01-20T15:44:26.302Z,1.54
2023-01-20T15:46:56.833Z,1.51
2023-01-20T15:49:25.760Z,1.47
2023-01-20T15:51:52.455Z,1.42
2023-01-20T15:54:19.675Z,1.40
2023-01-20T15:56:46.249Z,1.36
2023-01-20T15:59:15.359Z,1.34
2023-01-20T16:01:42.508Z,1.33
2023-01-20T16:04:10.389Z,1.27
2023-01-20T16:06:37.489Z,1.23
2023-01-20T16:09:19.714Z,1.17
2023-01-20T16:11:47.481Z,1.09
2023-01-20T16:14:14.699Z,1.08
2023-01-20T16:16:41.290Z,1.04
2023-01-20T16:19:14.509Z,1.01
2023-01-20T16:21:43.686Z,0.96
2023-01-20T16:24:12.736Z,0.92
2023-01-20T16:26:39.944Z,0.86
2023-01-20T16:29:09.539Z,0.83
2023-01-20T16:31:36.360Z,0.80
2023-01-20T16:34:04.550Z,0.78
2023-01-20T16:36:31.155Z,0.78
2023-01-20T16:38:58.500Z,0.75
2023-01-20T16:41:30.807Z,0.71
2023-01-20T16:43:58.845Z,0.68
2023-01-20T16:46:31.482Z,0.63
2023-01-20T16:49:01.817Z,0.56
2023-01-20T16:51:29.902Z,0.52
2023-01-20T16:53:57.855Z,0.51
2023-01-20T16:56:27.754Z,0.48
2023-01-20T16:58:59.540Z,0.46
2023-01-20T17:01:26.551Z,0.43
2023-01-20T17:03:56.365Z,0.39
2023-01-20T17:06:29.038Z,0.36
2023-01-20T17:08:58.548Z,0.32
2023-01-20T17:11:30.161Z,0.31
2023-01-20T17:13:57.743Z,0.28
2023-01-20T17:16:28.262Z,0.25
2023-01-20T17:18:58.676Z,0.21
2023-01-20T17:21:28.217Z,0.17
2023-01-20T17:24:03.209Z,0.15
2023-01-20T17:26:30.818Z,0.10
2023-01-20T17:29:04.757Z,0.07
2023-01-20T17:31:34.281Z,0.02
2023-01-20T17:34:01.593Z,-0.04
2023-01-20T17:36:29.562Z,-0.10
2023-01-20T17:38:57.993Z,-0.15
2023-01-20T17:41:24.535Z,-0.19
2023-01-20T17:43:51.736Z,-0.20
2023-01-20T17:46:23.384Z,-0.19
2023-01-20T17:48:51.460Z,-0.21
2023-01-20T17:51:20.587Z,-0.22
2023-01-20T17:53:48.749Z,-0.28
2023-01-20T17:56:16.832Z,-0.32
2023-01-20T17:58:45.070Z,-0.36
2023-01-20T18:01:17.685Z,-0.38
2023-01-20T18:03:46.188Z,-0.38
2023-01-20T18:06:15.043Z,-0.38
2023-01-20T18:08:43.127Z,-0.39
2023-01-20T18:11:19.516Z,-0.41
2023-01-20T18:13:47.780Z,-0.43
2023-01-20T18:16:16.050Z,-0.47
2023-01-20T18:18:44.928Z,-0.48
2023-01-20T18:21:17.119Z,-0.50
2023-01-20T18:23:45.795Z,-0.52
2023-01-20T18:26:14.218Z,-0.55
2023-01-20T18:28:42.196Z,-0.55
2023-01-20T18:31:13.668Z,-0.58
2023-01-20T18:33:47.743Z,-0.61
2023-01-20T18:36:18.398Z,-0.64
2023-01-20T18:38:50.357Z,-0.67
2023-01-20T18:41:17.208Z,-0.70
2023-01-20T18:43:44.651Z,-0.73
2023-01-20T18:46:11.546Z,-0.78
2023-01-20T18:48:45.468Z,-0.84
2023-01-20T18:51:15.110Z,-0.91
2023-01-20T18:53:45.835Z,-0.96
2023-01-20T18:56:14.893Z,-1.01
2023-01-20T18:58:47.317Z,-1.06
2023-01-20T19:01:17.140Z,-1.12
2023-01-20T19:03:46.351Z,-1.17
2023-01-20T19:06:15.306Z,-1.20
2023-01-20T19:08:44.126Z,-1.21
2023-01-20T19:11:13.668Z,-1.21
2023-01-20T19:13:42.204Z,-1.22
2023-01-20T19:16:10.483Z,-1.24
2023-01-20T19:18:37.934Z,-1.27
2023-01-20T19:21:10.325Z,-1.29
2023-01-20T19:23:38.056Z,-1.28
2023-01-20T19:26:10.709Z,-1.30
2023-01-20T19:28:38.558Z,-1.32
2023-01-20T19:31:09.513Z,-1.32
2023-01-20T19:33:37.554Z,-1.35
2023-01-20T19:36:07.568Z,-1.39
2023-01-20T19:38:35.652Z,-1.37
2023-01-20T19:41:14.552Z,-1.38
2023-01-20T19:43:42.327Z,-1.39
2023-01-20T19:46:18.668Z,-1.42
2023-01-20T19:48:45.985Z,-1.44
2023-01-20T19:51:14.808Z,-1.43
2023-01-20T19:53:43.145Z,-1.43
2023-01-20T19:56:17.559Z,-1.45
2023-01-20T19:58:47.719Z,-1.46
2023-01-20T20:01:26.174Z,-1.50
2023-01-20T20:03:54.655Z,-1.48
2023-01-20T20:06:23.227Z,-1.51
2023-01-20T20:08:50.629Z,-1.50
2023-01-20T20:11:17.522Z,-1.46
2023-01-20T20:13:44.894Z,-1.50
2023-01-20T20:16:11.605Z,-1.52
2023-01-20T20:18:38.815Z,-1.50
2023-01-20T20:21:06.660Z,-1.49
2023-01-20T20:23:33.843Z,-1.48
2023-01-20T20:26:00.448Z,-1.45
2023-01-20T20:28:28.487Z,-1.45
2023-01-20T20:30:58.473Z,-1.46
2023-01-20T20:33:25.732Z,-1.46
2023-01-20T20:35:52.352Z,-1.45
2023-01-20T20:38:19.544Z,-1.47
2023-01-20T20:40:46.261Z,-1.49
2023-01-20T20:43:13.516Z,-1.50
2023-01-20T20:45:40.119Z,-1.49
2023-01-20T20:48:07.376Z,-1.48
2023-01-20T20:50:34.012Z,-1.47
2023-01-20T20:53:01.359Z,-1.47
2023-01-20T20:55:29.291Z,-1.46
2023-01-20T20:57:56.820Z,-1.46
2023-01-20T21:00:28.016Z,-1.50
2023-01-20T21:02:55.333Z,-1.51
2023-01-20T21:05:22.251Z,-1.50
2023-01-20T21:07:49.365Z,-1.50
2023-01-20T21:10:17.504Z,-1.49
2023-01-20T21:12:45.049Z,-1.50
2023-01-20T21:15:11.857Z,-1.52
2023-01-20T21:17:39.525Z,-1.51
2023-01-20T21:20:07.604Z,-1.49
2023-01-20T21:22:34.880Z,-1.52
2023-01-20T21:25:01.434Z,-1.50
2023-01-20T21:27:30.745Z,-1.49
2023-01-20T21:29:57.353Z,-1.51
